createdAt,value
2023-05-23T00:02:11.123Z,11.52
2023-05-23T00:04:39.064Z,8.70
2023-05-23T00:07:06.685Z,9.63
2023-05-23T00:09:34.419Z,9.88
2023-05-23T00:12:14.109Z,13.32
2023-05-23T00:14:42.132Z,13.70
2023-05-23T00:17:11.074Z,13.60
2023-05-23T00:19:40.040Z,8.68
2023-05-23T00:22:08.217Z,10.65
2023-05-23T00:24:37.690Z,10.45
2023-05-23T00:27:05.932Z,11.40
2023-05-23T00:29:34.960Z,10.38
2023-05-23T00:32:02.622Z,12.90
2023-05-23T00:34:31.297Z,15.40
2023-05-23T00:36:59.959Z,9.45
2023-05-23T00:39:29.398Z,15.45
2023-05-23T00:42:00.281Z,8.50
2023-05-23T00:44:29.945Z,9.13
2023-05-23T00:46:57.672Z,8.23
2023-05-23T00:49:27.270Z,8.18
2023-05-23T00:51:55.477Z,10.98
2023-05-23T00:54:29.780Z,8.50
2023-05-23T00:57:03.998Z,8.57
2023-05-23T00:59:33.875Z,14.57
2023-05-23T01:02:02.721Z,10.40
2023-05-23T01:04:34.439Z,8.75
2023-05-23T01:07:03.828Z,13.68
2023-05-23T01:09:31.682Z,13.75
2023-05-23T01:12:20.877Z,17.73
2023-05-23T01:14:51.703Z,10.82
2023-05-23T01:17:45.021Z,13.68
2023-05-23T01:20:16.148Z,13.80
2023-05-23T01:22:50.770Z,20.60
2023-05-23T01:25:46.001Z,16.33
2023-05-23T01:28:17.076Z,17.02
2023-05-23T01:30:45.784Z,12.70
2023-05-23T01:33:14.495Z,17.02
2023-05-23T01:35:44.114Z,19.45
2023-05-23T01:38:11.696Z,17.55
2023-05-23T01:40:39.998Z,18.20
2023-05-23T01:43:08.442Z,17.48
2023-05-23T01:45:36.890Z,21.17
2023-05-23T01:48:06.553Z,12.10
2023-05-23T01:50:35.124Z,18.70
2023-05-23T01:53:05.150Z,18.60
2023-05-23T01:55:33.398Z,14.25
2023-05-23T01:58:01.335Z,14.32
2023-05-23T02:00:30.290Z,16.52
2023-05-23T02:02:59.904Z,15.20
2023-05-23T02:05:28.032Z,13.65
2023-05-23T02:07:56.208Z,15.30
2023-05-23T02:10:24.017Z,16.63
2023-05-23T02:12:53.837Z,14.80
2023-05-23T02:15:53.707Z,19.73
2023-05-23T02:18:23.118Z,18.13
2023-05-23T02:20:51.734Z,16.73
2023-05-23T02:23:19.576Z,14.73
2023-05-23T02:25:47.277Z,17.63
2023-05-23T02:28:14.985Z,14.35
2023-05-23T02:30:43.146Z,18.55
2023-05-23T02:33:12.420Z,22.98
2023-05-23T02:35:41.265Z,26.15
2023-05-23T02:38:13.193Z,23.48
2023-05-23T02:40:42.405Z,21.80
2023-05-23T02:43:09.950Z,23.40
2023-05-23T02:45:37.971Z,16.55
2023-05-23T02:48:06.282Z,23.65
2023-05-23T02:50:35.912Z,20.48
2023-05-23T02:53:03.963Z,18.85
2023-05-23T02:55:32.128Z,19.95
2023-05-23T02:57:59.984Z,23.52
2023-05-23T03:00:28.039Z,23.65
2023-05-23T03:03:00.164Z,27.58
2023-05-23T03:05:34.841Z,27.70
2023-05-23T03:08:06.989Z,25.30
2023-05-23T03:10:35.399Z,22.13
2023-05-23T03:13:03.651Z,22.02
2023-05-23T03:15:31.975Z,25.08
2023-05-23T03:18:00.065Z,28.95
2023-05-23T03:20:27.868Z,31.35
2023-05-23T03:22:56.292Z,24.75
2023-05-23T03:25:27.908Z,32.13
2023-05-23T03:27:58.087Z,25.10
2023-05-23T03:30:27.153Z,26.33
2023-05-23T03:32:55.989Z,25.80
2023-05-23T03:35:23.904Z,28.02
2023-05-23T03:37:55.192Z,21.98
2023-05-23T03:40:24.114Z,27.70
2023-05-23T03:43:03.532Z,33.05
2023-05-23T03:45:34.924Z,31.80
2023-05-23T03:48:06.566Z,38.10
2023-05-23T03:50:35.183Z,41.38
2023-05-23T03:53:05.159Z,26.63
2023-05-23T03:55:33.412Z,27.05
2023-05-23T03:58:02.269Z,27.65
2023-05-23T04:00:31.342Z,29.83
2023-05-23T04:03:01.434Z,22.98
2023-05-23T04:05:31.104Z,26.92
2023-05-23T04:08:01.621Z,24.40
2023-05-23T04:10:34.217Z,15.88
2023-05-23T04:13:03.130Z,18.45
2023-05-23T04:15:30.999Z,21.35
2023-05-23T04:18:04.523Z,17.73
2023-05-23T04:20:33.158Z,21.05
2023-05-23T04:23:00.856Z,18.55
2023-05-23T04:25:29.255Z,22.70
2023-05-23T04:28:07.165Z,17.10
2023-05-23T04:30:35.564Z,15.88
2023-05-23T04:33:04.345Z,13.80
2023-05-23T04:35:34.419Z,21.10
2023-05-23T04:38:04.154Z,13.27
2023-05-23T04:40:33.025Z,17.30
2023-05-23T04:43:18.323Z,15.13
2023-05-23T04:45:51.481Z,14.95
2023-05-23T04:48:37.291Z,18.08
2023-05-23T04:51:08.757Z,14.50
2023-05-23T04:53:43.490Z,19.27
2023-05-23T04:56:13.493Z,21.35
2023-05-23T04:58:44.557Z,23.92
2023-05-23T05:01:14.289Z,23.40
2023-05-23T05:03:44.854Z,27.27
2023-05-23T05:06:14.627Z,26.60
2023-05-23T05:08:45.174Z,23.58
2023-05-23T05:11:13.631Z,22.27
2023-05-23T05:13:43.085Z,26.15
2023-05-23T05:16:11.094Z,23.33
2023-05-23T05:18:40.607Z,25.40
2023-05-23T05:21:08.364Z,21.65
2023-05-23T05:23:38.488Z,24.95
2023-05-23T05:26:30.278Z,24.15
2023-05-23T05:28:59.155Z,20.25
2023-05-23T05:31:27.890Z,19.02
2023-05-23T05:33:57.374Z,17.65
2023-05-23T05:36:25.809Z,13.68
2023-05-23T05:38:54.504Z,16.73
2023-05-23T05:41:23.524Z,15.70
2023-05-23T05:43:54.247Z,18.50
2023-05-23T05:46:22.633Z,21.92
2023-05-23T05:48:51.415Z,21.55
2023-05-23T05:51:20.183Z,21.00
2023-05-23T05:53:49.642Z,23.05
2023-05-23T05:56:18.279Z,22.92
2023-05-23T05:58:47.204Z,19.77
2023-05-23T06:01:17.699Z,18.35
2023-05-23T06:03:45.929Z,17.92
2023-05-23T06:06:15.520Z,16.33
2023-05-23T06:08:43.601Z,17.80
2023-05-23T06:11:19.202Z,14.80
2023-05-23T06:13:49.554Z,15.05
2023-05-23T06:16:18.063Z,11.98
2023-05-23T06:18:46.646Z,20.33
2023-05-23T06:21:14.647Z,15.10
2023-05-23T06:23:43.261Z,14.93
2023-05-23T06:26:11.203Z,13.05
2023-05-23T06:28:43.675Z,16.02
2023-05-23T06:31:14.016Z,14.35
2023-05-23T06:33:43.774Z,12.65
2023-05-23T06:36:13.277Z,13.18
2023-05-23T06:38:41.325Z,12.23
2023-05-23T06:41:09.069Z,11.82
2023-05-23T06:43:38.258Z,11.32
2023-05-23T06:46:31.676Z,11.65
2023-05-23T06:49:13.687Z,13.55
2023-05-23T06:51:44.092Z,8.60
2023-05-23T06:54:12.552Z,11.25
2023-05-23T06:56:41.336Z,9.18
2023-05-23T06:59:09.496Z,10.70
2023-05-23T07:01:37.522Z,8.93
2023-05-23T07:04:05.459Z,8.80
2023-05-23T07:06:40.119Z,9.75
2023-05-23T07:09:12.194Z,7.47
2023-05-23T07:11:43.207Z,7.75
2023-05-23T07:14:13.290Z,11.00
2023-05-23T07:16:43.349Z,9.50
2023-05-23T07:19:14.173Z,12.85
2023-05-23T07:21:53.813Z,9.75
2023-05-23T07:24:26.611Z,8.57
2023-05-23T07:26:59.732Z,8.05
2023-05-23T07:29:28.340Z,7.75
2023-05-23T07:31:56.785Z,6.93
2023-05-23T07:34:28.380Z,8.05
2023-05-23T07:37:32.884Z,8.80
2023-05-23T07:40:02.220Z,7.93
2023-05-23T07:42:33.505Z,12.35
2023-05-23T07:45:06.208Z,9.20
2023-05-23T07:47:39.824Z,9.25
2023-05-23T07:50:10.566Z,9.35
2023-05-23T07:52:40.349Z,10.52
2023-05-23T07:55:11.335Z,7.88
2023-05-23T07:57:43.788Z,11.85
2023-05-23T08:00:13.766Z,7.68
2023-05-23T08:03:07.017Z,9.52
2023-05-23T08:05:40.529Z,9.90
2023-05-23T08:08:08.879Z,6.57
2023-05-23T08:10:41.600Z,12.05
2023-05-23T08:13:16.787Z,8.57
2023-05-23T08:16:03.580Z,12.18
2023-05-23T08:18:34.926Z,13.43
2023-05-23T08:21:04.049Z,9.93
2023-05-23T08:23:32.926Z,10.40
2023-05-23T08:26:05.254Z,11.43
2023-05-23T08:28:36.529Z,13.40
2023-05-23T08:31:10.624Z,13.70
2023-05-23T08:33:44.879Z,15.60
2023-05-23T08:36:14.448Z,12.85
2023-05-23T08:38:47.361Z,11.63
2023-05-23T08:41:25.409Z,17.55
2023-05-23T08:43:59.367Z,12.20
2023-05-23T08:47:06.237Z,9.07
2023-05-23T08:49:52.789Z,8.80
2023-05-23T08:52:22.713Z,6.72
2023-05-23T08:55:02.087Z,4.82
2023-05-23T08:57:31.989Z,7.00
2023-05-23T09:00:14.989Z,7.80
2023-05-23T09:02:51.973Z,8.25
2023-05-23T09:05:39.000Z,6.40
2023-05-23T09:08:14.509Z,5.55
2023-05-23T09:10:43.208Z,7.85
2023-05-23T09:13:12.669Z,8.65
2023-05-23T09:16:00.942Z,6.47
2023-05-23T09:18:35.086Z,8.32
2023-05-23T09:21:13.680Z,9.23
2023-05-23T09:23:51.420Z,8.52
2023-05-23T09:26:19.542Z,7.90
2023-05-23T09:28:47.528Z,15.45
2023-05-23T09:31:16.600Z,7.30
2023-05-23T09:33:50.219Z,6.68
2023-05-23T09:36:20.783Z,6.07
2023-05-23T09:38:54.167Z,5.38
2023-05-23T09:41:22.032Z,8.27
2023-05-23T09:43:56.692Z,5.60
2023-05-23T09:46:28.889Z,5.72
2023-05-23T09:48:57.492Z,9.20
2023-05-23T09:51:28.723Z,11.05
2023-05-23T09:53:58.434Z,8.50
2023-05-23T09:56:26.720Z,7.43
2023-05-23T09:58:55.345Z,7.00
2023-05-23T10:01:23.683Z,6.07
2023-05-23T10:04:00.554Z,5.38
2023-05-23T10:07:05.465Z,9.45
2023-05-23T10:09:40.641Z,7.93
2023-05-23T10:12:33.975Z,5.38
2023-05-23T10:15:05.562Z,8.35
2023-05-23T10:17:53.592Z,7.45
2023-05-23T10:20:22.959Z,6.75
2023-05-23T10:22:51.628Z,8.05
2023-05-23T10:25:20.475Z,8.20
2023-05-23T10:27:53.678Z,5.60
2023-05-23T10:30:23.381Z,5.72
2023-05-23T10:32:57.207Z,5.45
2023-05-23T10:35:46.963Z,5.80
2023-05-23T10:38:37.620Z,13.77
2023-05-23T10:41:26.999Z,7.18
2023-05-23T10:44:00.444Z,9.02
2023-05-23T10:46:56.803Z,8.95
2023-05-23T10:49:44.802Z,12.70
2023-05-23T10:52:17.467Z,9.52
2023-05-23T10:54:53.286Z,13.85
2023-05-23T10:57:23.570Z,10.63
2023-05-23T10:59:52.175Z,12.20
2023-05-23T11:02:28.266Z,14.00
2023-05-23T11:05:25.025Z,11.82
2023-05-23T11:08:15.562Z,14.25
2023-05-23T11:11:04.669Z,13.75
2023-05-23T11:14:02.929Z,11.18
2023-05-23T11:16:42.532Z,13.13
2023-05-23T11:19:19.701Z,14.80
2023-05-23T11:22:10.319Z,12.73
2023-05-23T11:24:53.804Z,13.80
2023-05-23T11:27:28.578Z,17.10
2023-05-23T11:30:02.991Z,15.70
2023-05-23T11:32:32.509Z,14.13
2023-05-23T11:35:02.874Z,14.38
2023-05-23T11:37:41.033Z,13.80
2023-05-23T11:40:30.317Z,14.75
2023-05-23T11:42:59.003Z,15.40
2023-05-23T11:45:31.124Z,16.00
2023-05-23T11:48:08.918Z,17.60
2023-05-23T11:50:46.317Z,12.48
2023-05-23T11:53:23.258Z,16.77
2023-05-23T11:55:53.892Z,13.65
2023-05-23T11:58:23.116Z,13.50
2023-05-23T12:00:54.382Z,18.02
2023-05-23T12:03:24.616Z,13.98
2023-05-23T12:05:52.808Z,14.63
2023-05-23T12:08:21.188Z,15.60
2023-05-23T12:10:53.966Z,12.80
2023-05-23T12:13:24.652Z,12.98
2023-05-23T12:15:56.887Z,12.52
2023-05-23T12:18:29.086Z,14.70
2023-05-23T12:21:07.338Z,23.55
2023-05-23T12:23:36.092Z,13.30
2023-05-23T12:26:08.427Z,15.45
2023-05-23T12:28:41.127Z,14.98
2023-05-23T12:31:19.432Z,14.60
2023-05-23T12:33:48.699Z,17.80
2023-05-23T12:36:25.382Z,14.57
2023-05-23T12:38:54.666Z,16.70
2023-05-23T12:41:23.591Z,14.50
2023-05-23T12:43:55.469Z,16.58
2023-05-23T12:46:27.778Z,16.90
2023-05-23T12:48:55.600Z,17.48
2023-05-23T12:51:26.018Z,16.13
2023-05-23T12:54:03.097Z,18.27
2023-05-23T12:56:57.082Z,17.77
2023-05-23T12:59:25.716Z,16.85
2023-05-23T13:01:55.936Z,18.05
2023-05-23T13:04:23.687Z,15.98
2023-05-23T13:07:00.993Z,17.02
2023-05-23T13:09:28.783Z,17.17
2023-05-23T13:11:56.996Z,17.15
2023-05-23T13:14:26.041Z,16.63
2023-05-23T13:16:53.810Z,14.68
2023-05-23T13:19:21.677Z,13.88
2023-05-23T13:21:52.617Z,11.98
2023-05-23T13:24:24.797Z,12.07
2023-05-23T13:26:53.524Z,14.73
2023-05-23T13:29:23.930Z,10.80
2023-05-23T13:31:53.897Z,11.45
2023-05-23T13:34:21.994Z,13.27
2023-05-23T13:36:49.606Z,10.60
2023-05-23T13:39:19.716Z,13.57
2023-05-23T13:41:47.993Z,12.88
2023-05-23T13:44:17.095Z,12.70
2023-05-23T13:46:44.921Z,11.95
2023-05-23T13:49:18.278Z,12.32
2023-05-23T13:51:46.733Z,11.48
2023-05-23T13:54:15.220Z,13.52
2023-05-23T13:56:44.441Z,11.82
2023-05-23T13:59:12.227Z,12.63
2023-05-23T14:01:40.302Z,10.50
2023-05-23T14:04:08.372Z,10.70
2023-05-23T14:06:36.934Z,12.90
2023-05-23T14:09:05.284Z,13.15
2023-05-23T14:11:34.420Z,14.07
2023-05-23T14:14:02.453Z,10.45
2023-05-23T14:16:30.395Z,13.10
2023-05-23T14:19:01.478Z,13.57
2023-05-23T14:21:32.651Z,14.18
2023-05-23T14:24:01.131Z,13.88
2023-05-23T14:26:28.686Z,15.50
2023-05-23T14:28:56.721Z,15.07
2023-05-23T14:31:24.722Z,16.92
2023-05-23T14:33:52.689Z,19.75
2023-05-23T14:36:23.074Z,18.33
2023-05-23T14:38:54.167Z,18.95
2023-05-23T14:41:23.190Z,17.75
2023-05-23T14:44:00.371Z,16.00
2023-05-23T14:46:51.784Z,17.85
2023-05-23T14:49:21.814Z,15.63
2023-05-23T14:51:59.473Z,15.07
2023-05-23T14:54:43.837Z,20.15
2023-05-23T14:57:15.707Z,18.67
2023-05-23T14:59:43.623Z,17.00
2023-05-23T15:02:11.990Z,17.10
2023-05-23T15:04:45.481Z,19.45
2023-05-23T15:07:15.064Z,18.27
2023-05-23T15:09:43.879Z,19.38
2023-05-23T15:12:33.040Z,19.40
2023-05-23T15:15:07.066Z,17.20
2023-05-23T15:17:45.022Z,15.88
2023-05-23T15:20:36.467Z,16.92
2023-05-23T15:23:13.016Z,23.23
2023-05-23T15:25:49.356Z,18.83
2023-05-23T15:28:24.208Z,14.38
2023-05-23T15:30:54.367Z,7.68
2023-05-23T15:33:22.080Z,6.55
2023-05-23T15:35:53.239Z,8.43
2023-05-23T15:38:26.231Z,5.53
2023-05-23T15:41:03.564Z,8.60
2023-05-23T15:43:35.663Z,10.88
2023-05-23T15:46:05.963Z,6.57
2023-05-23T15:48:41.272Z,6.75
2023-05-23T15:51:09.201Z,9.55
2023-05-23T15:53:47.875Z,4.57
2023-05-23T15:56:26.663Z,5.25
2023-05-23T15:58:56.070Z,9.52
2023-05-23T16:01:37.155Z,14.48
2023-05-23T16:04:08.890Z,22.10
2023-05-23T16:11:35.293Z,22.67
2023-05-23T16:14:04.208Z,26.40
2023-05-23T16:16:36.176Z,18.60
2023-05-23T16:19:06.070Z,9.95
2023-05-23T16:21:36.730Z,9.68
2023-05-23T16:24:05.976Z,6.28
2023-05-23T16:26:56.916Z,9.55
2023-05-23T16:33:46.118Z,7.93
2023-05-23T16:36:13.797Z,5.55
2023-05-23T16:38:46.115Z,9.07
2023-05-23T16:41:14.134Z,6.40
2023-05-23T16:43:41.754Z,8.07
2023-05-23T16:46:10.487Z,6.85
2023-05-23T16:48:40.924Z,8.25
2023-05-23T16:51:32.153Z,7.32
2023-05-23T16:54:01.743Z,5.63
2023-05-23T16:56:31.230Z,4.70
2023-05-23T16:58:58.858Z,4.80
2023-05-23T17:01:32.402Z,6.85
2023-05-23T17:04:03.964Z,9.25
2023-05-23T17:06:34.159Z,9.80
2023-05-23T17:09:03.591Z,6.90
2023-05-23T17:11:31.877Z,7.38
2023-05-23T17:14:00.029Z,7.90
2023-05-23T17:19:18.567Z,8.43
2023-05-23T17:22:09.169Z,10.10
2023-05-23T17:29:52.036Z,12.05
2023-05-23T17:32:21.564Z,7.65
2023-05-23T17:34:49.695Z,8.93
2023-05-23T17:37:20.079Z,9.45
2023-05-23T17:39:48.870Z,10.77
2023-05-23T17:42:17.668Z,11.38
2023-05-23T17:44:47.229Z,8.63
2023-05-23T17:47:15.425Z,11.30
2023-05-23T17:49:43.284Z,11.00
2023-05-23T17:52:15.205Z,11.63
2023-05-23T17:54:46.164Z,14.30
2023-05-23T17:57:17.370Z,11.77
2023-05-23T17:59:45.457Z,12.43
2023-05-23T18:02:14.532Z,12.82
2023-05-23T18:04:49.355Z,15.88
2023-05-23T18:07:21.482Z,12.23
2023-05-23T18:09:51.705Z,17.10
2023-05-23T18:12:21.177Z,14.75
2023-05-23T18:14:57.398Z,17.85
2023-05-23T18:17:33.367Z,16.73
2023-05-23T18:20:08.494Z,13.77
2023-05-23T18:22:36.534Z,15.30
2023-05-23T18:25:07.110Z,20.25
2023-05-23T18:27:37.212Z,16.73
2023-05-23T18:30:14.279Z,17.17
2023-05-23T18:33:03.297Z,21.40
2023-05-23T18:35:46.871Z,24.17
2023-05-23T18:38:39.027Z,28.15
2023-05-23T18:43:50.318Z,34.53
2023-05-23T18:46:27.405Z,37.78
2023-05-23T18:49:07.168Z,28.27
2023-05-23T18:52:08.738Z,36.35
2023-05-23T18:54:44.224Z,42.10
2023-05-23T18:57:31.589Z,35.65
2023-05-23T19:00:05.025Z,23.15
2023-05-23T19:02:34.289Z,28.35
2023-05-23T19:05:02.727Z,42.40
2023-05-23T19:07:33.856Z,41.33
2023-05-23T19:10:04.327Z,39.53
2023-05-23T19:12:32.812Z,31.83
2023-05-23T19:15:21.105Z,30.02
2023-05-23T19:18:10.255Z,35.75
2023-05-23T19:20:58.451Z,36.00
2023-05-23T19:23:49.563Z,40.90
2023-05-23T19:26:19.905Z,42.95
2023-05-23T19:28:49.125Z,30.73
2023-05-23T19:31:16.846Z,35.38
2023-05-23T19:33:51.790Z,28.25
2023-05-23T19:36:29.009Z,31.40
2023-05-23T19:38:57.431Z,25.67
2023-05-23T19:41:29.354Z,36.17
2023-05-23T19:44:20.310Z,31.95
2023-05-23T19:46:57.940Z,33.58
2023-05-23T19:49:26.099Z,32.10
2023-05-23T19:51:55.188Z,32.60
2023-05-23T19:54:24.424Z,30.00
2023-05-23T19:56:51.963Z,36.67
2023-05-23T19:59:26.082Z,35.85
2023-05-23T20:02:03.129Z,41.75
2023-05-23T20:04:36.465Z,36.70
2023-05-23T20:07:04.788Z,34.63
2023-05-23T20:09:34.716Z,33.80
2023-05-23T20:12:03.404Z,34.88
2023-05-23T20:14:32.725Z,40.90
2023-05-23T20:17:08.588Z,38.15
2023-05-23T20:19:36.672Z,38.90
2023-05-23T20:22:04.608Z,35.10
2023-05-23T20:24:33.606Z,31.73
2023-05-23T20:27:02.261Z,34.28
2023-05-23T20:29:32.725Z,34.78
2023-05-23T20:32:00.742Z,41.90
2023-05-23T20:34:29.223Z,33.65
2023-05-23T20:37:33.779Z,32.92
2023-05-23T20:40:01.572Z,32.83
2023-05-23T20:42:31.204Z,30.75
2023-05-23T20:44:59.237Z,31.90
2023-05-23T20:47:27.087Z,36.53
2023-05-23T20:49:57.398Z,36.88
2023-05-23T20:52:25.218Z,34.80
2023-05-23T20:56:28.038Z,43.53
2023-05-23T20:58:55.614Z,35.13
2023-05-23T21:01:24.346Z,35.63
2023-05-23T21:03:58.287Z,41.38
2023-05-23T21:06:27.371Z,39.83
2023-05-23T21:08:55.133Z,39.28
2023-05-23T21:11:23.503Z,36.65
2023-05-23T21:13:51.281Z,37.50
2023-05-23T21:16:20.324Z,39.42
2023-05-23T21:18:48.072Z,34.45
2023-05-23T21:21:18.145Z,37.85
2023-05-23T21:23:49.237Z,35.50
2023-05-23T21:26:17.661Z,35.78
2023-05-23T21:28:45.242Z,38.22
2023-05-23T21:31:13.856Z,36.28
2023-05-23T21:33:41.607Z,40.38
2023-05-23T21:36:09.395Z,40.13
2023-05-23T21:38:37.669Z,37.78
2023-05-23T21:41:05.312Z,38.42
2023-05-23T21:43:33.262Z,37.08
2023-05-23T21:46:01.260Z,35.30
2023-05-23T21:48:28.980Z,45.83
2023-05-23T21:50:57.211Z,39.35
2023-05-23T21:53:26.150Z,35.25
2023-05-23T21:55:53.766Z,41.10
2023-05-23T21:58:21.530Z,38.15
2023-05-23T22:00:49.258Z,42.55
2023-05-23T22:03:17.157Z,38.10
2023-05-23T22:05:47.471Z,33.88
2023-05-23T22:08:16.423Z,40.85
2023-05-23T22:10:45.073Z,44.35
2023-05-23T22:13:13.368Z,42.78
2023-05-23T22:15:40.886Z,37.30
2023-05-23T22:18:08.574Z,40.17
2023-05-23T22:20:39.104Z,37.70
2023-05-23T22:23:09.967Z,41.83
2023-05-23T22:25:39.416Z,39.55
2023-05-23T22:29:12.987Z,40.67
2023-05-23T22:31:47.731Z,38.85
2023-05-23T22:34:16.102Z,40.47
2023-05-23T22:36:43.736Z,42.97
2023-05-23T22:39:12.522Z,38.55
2023-05-23T22:41:41.079Z,42.55
2023-05-23T22:44:10.859Z,41.00
2023-05-23T22:46:39.769Z,43.83
2023-05-23T22:49:08.912Z,43.78
2023-05-23T22:51:36.676Z,40.00
2023-05-23T22:54:06.830Z,37.33
2023-05-23T22:56:34.637Z,38.25
2023-05-23T22:59:02.305Z,37.95
2023-05-23T23:01:30.194Z,41.00
2023-05-23T23:03:58.030Z,36.25
2023-05-23T23:06:25.647Z,37.60
2023-05-23T23:08:54.453Z,34.67
2023-05-23T23:11:22.246Z,35.30
2023-05-23T23:13:50.483Z,35.42
2023-05-23T23:16:19.570Z,36.85
2023-05-23T23:18:47.926Z,36.63
2023-05-23T23:21:17.229Z,34.78
2023-05-23T23:23:45.214Z,38.13
2023-05-23T23:26:13.071Z,41.50
2023-05-23T23:28:40.938Z,41.17
2023-05-23T23:31:08.596Z,43.95
2023-05-23T23:33:36.524Z,43.47
2023-05-23T23:36:04.500Z,37.95
2023-05-23T23:38:33.389Z,37.75
2023-05-23T23:41:02.673Z,38.92
2023-05-23T23:43:31.474Z,43.15
2023-05-23T23:45:59.230Z,37.78
2023-05-23T23:48:26.955Z,40.90
2023-05-23T23:50:57.175Z,42.50
2023-05-23T23:53:30.291Z,42.03
2023-05-23T23:56:00.571Z,42.42
2023-05-23T23:58:36.617Z,42.92
